createdAt,value
2022-09-02T00:30:37.567Z,0
2022-09-02T00:31:18.076Z,0
2022-09-02T00:31:58.585Z,0
2022-09-02T00:37:22.341Z,0
2022-09-02T00:38:02.842Z,0
2022-09-02T00:38:43.327Z,0
2022-09-02T00:39:23.839Z,0
2022-09-02T00:40:04.392Z,0
2022-09-02T00:40:44.911Z,0
2022-09-02T00:41:25.318Z,0
2022-09-02T00:42:05.836Z,0
2022-09-02T00:42:46.293Z,0
2022-09-02T00:43:26.756Z,0
2022-09-02T00:44:07.246Z,0
2022-09-02T00:50:52.252Z,0
2022-09-02T00:51:32.760Z,0
2022-09-02T00:52:13.237Z,0
2022-09-02T00:52:53.717Z,0
2022-09-02T00:53:34.256Z,0
2022-09-02T00:54:14.732Z,0
2022-09-02T00:54:55.263Z,0
2022-09-02T00:55:35.751Z,0
2022-09-02T00:56:16.237Z,0
2022-09-02T00:56:56.764Z,0
2022-09-02T00:57:37.275Z,0
2022-09-02T01:04:22.231Z,0
2022-09-02T01:05:02.719Z,0
2022-09-02T01:05:43.899Z,0
2022-09-02T01:06:23.717Z,0
2022-09-02T01:07:04.265Z,0
2022-09-02T01:07:44.739Z,0
2022-09-02T01:08:25.229Z,0
2022-09-02T01:09:05.654Z,0
2022-09-02T01:09:46.174Z,0
2022-09-02T01:10:26.647Z,0
2022-09-02T01:11:07.147Z,0
2022-09-02T01:14:32.585Z,0
2022-09-02T01:15:13.071Z,0
2022-09-02T01:15:53.586Z,0
2022-09-02T01:16:34.117Z,0
2022-09-02T01:17:14.537Z,0
2022-09-02T01:17:55.029Z,0
2022-09-02T01:18:35.500Z,0
2022-09-02T01:19:16.025Z,0
2022-09-02T01:19:56.471Z,0
2022-09-02T01:20:36.950Z,0
2022-09-02T01:30:35.781Z,0
2022-09-02T01:31:16.056Z,0
2022-09-02T01:31:56.591Z,0
2022-09-02T01:37:55.696Z,0
2022-09-02T01:38:34.827Z,0
2022-09-02T01:39:15.268Z,0
2022-09-02T01:45:59.971Z,0
2022-09-02T01:49:39.203Z,0
2022-09-02T01:50:19.556Z,0
2022-09-02T01:51:00.247Z,0
2022-09-02T01:54:53.818Z,0
2022-09-02T01:55:34.326Z,0
2022-09-02T01:56:14.831Z,0
2022-09-02T02:01:38.751Z,0
2022-09-02T02:02:19.268Z,0
2022-09-02T02:02:59.643Z,0
2022-09-02T02:03:40.167Z,0
2022-09-02T02:04:20.656Z,0
2022-09-02T02:05:01.134Z,0
2022-09-02T02:05:41.672Z,0
2022-09-02T02:06:22.186Z,0
2022-09-02T02:07:02.609Z,0
2022-09-02T02:07:43.113Z,0
2022-09-02T02:15:08.364Z,0
2022-09-02T02:17:22.658Z,0
2022-09-02T02:18:03.001Z,0
2022-09-02T02:18:43.473Z,0
2022-09-02T02:22:06.845Z,0
2022-09-02T02:22:47.338Z,0
2022-09-02T02:23:27.800Z,0
2022-09-02T02:24:08.269Z,0
2022-09-02T02:24:48.750Z,0
2022-09-02T02:25:29.215Z,0
2022-09-02T02:26:09.716Z,0
2022-09-02T02:26:50.242Z,0
2022-09-02T02:27:30.667Z,0
2022-09-02T02:28:11.140Z,0
2022-09-02T02:35:36.229Z,0
2022-09-02T02:36:16.898Z,0
2022-09-02T02:36:57.380Z,0
2022-09-02T02:37:37.852Z,0
2022-09-02T02:38:18.268Z,0
2022-09-02T02:38:58.721Z,0
2022-09-02T02:40:19.710Z,0
2022-09-02T02:41:00.095Z,0
2022-09-02T02:41:40.563Z,0
2022-09-02T02:42:21.068Z,0
2022-09-02T02:49:46.376Z,0
2022-09-02T02:50:26.809Z,0
2022-09-02T02:51:07.264Z,0
2022-09-02T02:51:47.751Z,0
2022-09-02T02:52:28.187Z,0
2022-09-02T02:53:08.713Z,0
2022-09-02T02:53:49.179Z,0
2022-09-02T02:54:34.875Z,0
2022-09-02T02:55:10.121Z,0
2022-09-02T02:55:51.484Z,0
2022-09-02T02:56:31.067Z,0
2022-09-02T03:03:56.311Z,0
2022-09-02T03:04:36.800Z,0
2022-09-02T03:05:17.277Z,0
2022-09-02T03:05:57.741Z,0
2022-09-02T03:06:38.171Z,0
2022-09-02T03:07:18.717Z,0
2022-09-02T03:07:59.235Z,0
2022-09-02T03:08:39.667Z,0
2022-09-02T03:09:20.172Z,0
2022-09-02T03:10:00.687Z,0
2022-09-02T03:10:41.145Z,0
2022-09-02T03:18:06.341Z,0
2022-09-02T03:18:46.810Z,0
2022-09-02T03:19:27.299Z,0
2022-09-02T03:20:07.826Z,0
2022-09-02T03:20:48.267Z,0
2022-09-02T03:21:28.693Z,0
2022-09-02T03:22:09.188Z,0
2022-09-02T03:24:32.001Z,0
2022-09-02T03:25:12.450Z,0
2022-09-02T03:25:52.973Z,0
2022-09-02T03:26:33.454Z,0
2022-09-02T03:27:13.983Z,0
2022-09-02T03:27:54.445Z,0
2022-09-02T03:28:34.934Z,0
2022-09-02T03:29:15.453Z,0
2022-09-02T03:29:55.942Z,0
2022-09-02T03:30:36.431Z,0
2022-09-02T03:31:16.942Z,0
2022-09-02T03:38:02.023Z,0
2022-09-02T03:38:42.499Z,0
2022-09-02T03:39:22.992Z,0
2022-09-02T03:40:03.517Z,0
2022-09-02T03:40:43.973Z,0
2022-09-02T03:41:24.436Z,0
2022-09-02T03:42:05.662Z,0
2022-09-02T03:42:45.441Z,0
2022-09-02T03:43:25.909Z,0
2022-09-02T03:44:06.431Z,0
2022-09-02T03:44:46.939Z,0
2022-09-02T03:51:32.025Z,0
2022-09-02T03:52:12.523Z,0
2022-09-02T03:52:53.055Z,0
2022-09-02T03:53:33.600Z,0
2022-09-02T03:54:14.083Z,0
2022-09-02T03:54:55.384Z,0
2022-09-02T03:55:35.893Z,0
2022-09-02T03:56:16.413Z,0
2022-09-02T03:56:56.887Z,0
2022-09-02T04:03:08.367Z,0
2022-09-02T04:03:48.726Z,0
2022-09-02T04:04:29.170Z,0
2022-09-02T04:09:53.082Z,0
2022-09-02T04:10:33.777Z,0
2022-09-02T04:11:14.101Z,0
2022-09-02T04:11:54.509Z,0
2022-09-02T04:12:34.991Z,0
2022-09-02T04:13:15.494Z,0
2022-09-02T04:13:55.989Z,0
2022-09-02T04:14:36.490Z,0
2022-09-02T04:15:16.998Z,0
2022-09-02T04:16:01.637Z,0
2022-09-02T04:23:23.031Z,0
2022-09-02T04:24:03.525Z,0
2022-09-02T04:24:43.985Z,0
2022-09-02T04:25:27.633Z,0
2022-09-02T04:26:04.986Z,0
2022-09-02T04:26:45.533Z,0
2022-09-02T04:27:25.975Z,0
2022-09-02T04:28:06.444Z,0
2022-09-02T04:29:27.432Z,0
2022-09-02T04:36:53.040Z,0
2022-09-02T04:37:33.527Z,0
2022-09-02T04:38:14.020Z,0
2022-09-02T04:38:54.506Z,0
2022-09-02T04:39:35.042Z,0
2022-09-02T04:40:15.534Z,0
2022-09-02T04:40:55.970Z,0
2022-09-02T04:41:37.738Z,0
2022-09-02T04:49:03.225Z,0
2022-09-02T04:49:43.755Z,0
2022-09-02T04:50:24.185Z,0
2022-09-02T04:51:04.683Z,0
2022-09-02T04:51:45.171Z,0
2022-09-02T04:52:25.636Z,0
2022-09-02T04:53:07.166Z,0
2022-09-02T05:00:32.758Z,0
2022-09-02T05:01:13.250Z,0
2022-09-02T05:01:53.908Z,0
2022-09-02T05:02:34.393Z,5
2022-09-02T05:03:14.819Z,5
2022-09-02T05:03:55.367Z,10
2022-09-02T05:04:35.846Z,10
2022-09-02T05:05:16.388Z,10
2022-09-02T05:05:56.854Z,10
2022-09-02T05:06:40.689Z,10
2022-09-02T05:14:02.947Z,15
2022-09-02T05:14:43.532Z,10
2022-09-02T05:15:23.994Z,10
2022-09-02T05:16:05.666Z,10
2022-09-02T05:16:46.225Z,10
2022-09-02T05:17:27.623Z,10
2022-09-02T05:24:53.124Z,15
2022-09-02T05:25:33.668Z,25
2022-09-02T05:26:54.575Z,20
2022-09-02T05:27:35.058Z,20
2022-09-02T05:28:15.550Z,20
2022-09-02T05:28:56.056Z,20
2022-09-02T05:29:36.568Z,20
2022-09-02T05:30:17.061Z,25
2022-09-02T05:30:57.628Z,30
2022-09-02T05:38:23.029Z,25
2022-09-02T05:39:03.517Z,25
2022-09-02T05:39:44.077Z,25
2022-09-02T05:40:24.690Z,25
2022-09-02T05:41:05.108Z,25
2022-09-02T05:41:45.611Z,25
2022-09-02T05:42:26.079Z,25
2022-09-02T05:43:06.599Z,25
2022-09-02T05:43:47.080Z,25
2022-09-02T05:44:27.584Z,25
2022-09-02T05:47:48.278Z,30
2022-09-02T05:48:29.445Z,30
2022-09-02T05:49:10.446Z,30
2022-09-02T05:50:33.004Z,30
2022-09-02T05:51:14.016Z,30
2022-09-02T05:51:55.542Z,30
2022-09-02T05:52:36.562Z,30
2022-09-02T06:31:34.450Z,65
2022-09-02T06:32:12.373Z,65
2022-09-02T06:32:53.243Z,65
2022-09-02T06:36:16.382Z,285
2022-09-02T06:36:56.901Z,150
2022-09-02T06:37:37.369Z,85
2022-09-02T06:38:17.934Z,80
2022-09-02T06:38:58.358Z,80
2022-09-02T06:39:38.999Z,85
2022-09-02T06:40:19.693Z,120
2022-09-02T06:41:00.053Z,150
2022-09-02T06:41:40.656Z,130
2022-09-02T06:42:21.133Z,120
2022-09-02T06:48:26.123Z,70
2022-09-02T06:49:06.666Z,70
2022-09-02T06:49:47.217Z,70
2022-09-02T06:50:27.693Z,75
2022-09-02T06:51:08.260Z,100
2022-09-02T06:51:48.828Z,130
2022-09-02T06:52:29.364Z,165
2022-09-02T06:53:09.890Z,195
2022-09-02T06:53:50.444Z,210
2022-09-02T06:54:31.072Z,215
2022-09-02T07:00:36.373Z,80
2022-09-02T07:01:16.924Z,85
2022-09-02T07:01:57.514Z,80
2022-09-02T07:02:37.885Z,80
2022-09-02T07:03:18.466Z,80
2022-09-02T07:03:58.919Z,85
2022-09-02T07:04:39.427Z,85
2022-09-02T07:05:19.952Z,95
2022-09-02T07:06:00.554Z,80
2022-09-02T07:06:41.057Z,95
2022-09-02T07:12:46.561Z,175
2022-09-02T07:13:27.082Z,210
2022-09-02T07:14:07.894Z,190
2022-09-02T07:14:48.406Z,195
2022-09-02T07:15:28.969Z,195
2022-09-02T07:16:09.517Z,190
2022-09-02T07:16:50.099Z,190
2022-09-02T07:17:30.489Z,175
2022-09-02T07:18:11.054Z,180
2022-09-02T07:24:16.344Z,155
2022-09-02T07:24:56.913Z,145
2022-09-02T07:25:37.442Z,145
2022-09-02T07:26:17.992Z,140
2022-09-02T07:26:58.493Z,140
2022-09-02T07:27:39.199Z,140
2022-09-02T07:28:19.762Z,135
2022-09-02T07:29:00.319Z,135
2022-09-02T07:29:40.902Z,135
2022-09-02T07:38:20.352Z,110
2022-09-02T07:39:00.772Z,105
2022-09-02T07:39:41.319Z,105
2022-09-02T07:44:24.991Z,100
2022-09-02T07:45:05.553Z,100
2022-09-02T07:45:46.033Z,100
2022-09-02T07:46:26.471Z,100
2022-09-02T07:47:47.528Z,100
2022-09-02T07:48:28.009Z,95
2022-09-02T07:49:09.004Z,95
2022-09-02T07:54:34.889Z,90
2022-09-02T07:55:15.395Z,90
2022-09-02T07:55:55.940Z,85
2022-09-02T07:56:36.469Z,90
2022-09-02T07:57:17.023Z,85
2022-09-02T07:57:58.947Z,85
2022-09-02T07:58:39.408Z,85
2022-09-02T08:06:19.461Z,80
2022-09-02T08:10:13.689Z,75
2022-09-02T08:10:59.681Z,75
2022-09-02T08:11:40.304Z,75
2022-09-02T08:12:22.145Z,75
2022-09-02T08:13:01.945Z,75
2022-09-02T08:16:29.325Z,70
2022-09-02T08:17:09.802Z,70
2022-09-02T08:17:51.539Z,70
2022-09-02T08:18:32.378Z,70
2022-09-02T08:19:12.855Z,70
2022-09-02T08:24:38.771Z,70
2022-09-02T08:25:19.681Z,70
2022-09-02T08:25:59.979Z,65
2022-09-02T08:26:40.565Z,65
2022-09-02T08:27:21.066Z,65
2022-09-02T08:28:42.107Z,65
2022-09-02T08:29:22.608Z,65
2022-09-02T08:32:43.406Z,65
2022-09-02T08:33:24.110Z,65
2022-09-02T08:34:04.441Z,65
2022-09-02T08:34:46.566Z,65
2022-09-02T08:35:26.929Z,65
2022-09-02T08:36:08.175Z,60
2022-09-02T08:36:48.946Z,60
2022-09-02T08:37:29.136Z,60
2022-09-02T08:38:09.644Z,60
2022-09-02T08:38:50.196Z,60
2022-09-02T08:39:30.810Z,60
2022-09-02T08:40:11.436Z,60
2022-09-02T08:45:36.439Z,60
2022-09-02T08:46:17.039Z,60
2022-09-02T08:49:56.609Z,65
2022-09-02T08:50:37.018Z,65
2022-09-02T08:51:17.488Z,65
2022-09-02T08:55:20.773Z,60
2022-09-02T08:56:01.246Z,60
2022-09-02T08:56:42.536Z,60
2022-09-02T08:57:23.018Z,60
2022-09-02T09:01:41.600Z,60
2022-09-02T09:02:21.799Z,60
2022-09-02T09:03:02.575Z,60
2022-09-02T09:04:24.773Z,60
2022-09-02T09:05:05.873Z,60
2022-09-02T09:05:49.703Z,60
2022-09-02T09:08:34.607Z,60
2022-09-02T09:09:15.919Z,60
2022-09-02T09:09:57.461Z,60
2022-09-02T09:10:38.745Z,60
2022-09-02T09:14:44.895Z,60
2022-09-02T09:15:25.965Z,60
2022-09-02T09:16:07.030Z,60
2022-09-02T09:16:48.040Z,60
2022-09-02T09:17:29.037Z,60
2022-09-02T09:21:35.251Z,60
2022-09-02T09:22:16.206Z,60
2022-09-02T09:22:57.220Z,55
2022-09-02T09:23:38.352Z,55
2022-09-02T09:24:19.297Z,55
2022-09-02T09:27:44.824Z,55
2022-09-02T09:28:25.956Z,55
2022-09-02T09:29:06.952Z,55
2022-09-02T09:29:48.004Z,55
2022-09-02T09:30:29.182Z,55
2022-09-02T09:33:54.395Z,55
2022-09-02T09:34:35.563Z,55
2022-09-02T09:35:16.917Z,55
2022-09-02T09:35:57.988Z,55
2022-09-02T09:36:39.561Z,55
2022-09-02T09:40:05.237Z,55
2022-09-02T09:40:46.237Z,55
2022-09-02T09:41:27.473Z,55
2022-09-02T09:45:35.440Z,50
2022-09-02T09:46:16.437Z,55
2022-09-02T09:46:57.394Z,55
2022-09-02T09:47:38.371Z,55
2022-09-02T09:48:19.437Z,55
2022-09-02T09:51:47.203Z,50
2022-09-02T09:52:28.297Z,45
2022-09-02T09:53:09.294Z,45
2022-09-02T09:55:14.493Z,50
2022-09-02T09:55:55.494Z,50
2022-09-02T09:56:36.991Z,55
2022-09-02T09:57:17.719Z,55
2022-09-02T09:57:59.047Z,50
2022-09-02T10:01:24.859Z,55
2022-09-02T10:02:05.947Z,55
2022-09-02T10:02:47.086Z,55
2022-09-02T10:03:30.549Z,55
2022-09-02T10:04:26.211Z,55
2022-09-02T10:07:35.355Z,55
2022-09-02T10:08:16.534Z,55
2022-09-02T10:09:39.076Z,55
2022-09-02T10:13:05.693Z,55
2022-09-02T10:13:46.775Z,55
2022-09-02T10:14:29.193Z,55
2022-09-02T10:15:09.056Z,50
2022-09-02T10:17:55.223Z,50
2022-09-02T10:18:36.186Z,50
2022-09-02T10:19:17.641Z,50
2022-09-02T10:22:38.008Z,50
2022-09-02T10:23:17.853Z,50
2022-09-02T10:23:58.300Z,50
2022-09-02T10:27:21.912Z,55
2022-09-02T10:28:02.425Z,55
2022-09-02T10:28:44.927Z,55
2022-09-02T10:29:25.791Z,55
2022-09-02T10:33:05.481Z,60
2022-09-02T10:33:46.018Z,60
2022-09-02T10:34:26.608Z,60
2022-09-02T10:37:49.455Z,60
2022-09-02T10:38:29.963Z,60
2022-09-02T10:39:10.532Z,60
2022-09-02T10:39:51.100Z,60
2022-09-02T10:40:31.584Z,60
2022-09-02T10:41:12.064Z,60
2022-09-02T10:41:52.638Z,60
2022-09-02T10:42:33.230Z,60
2022-09-02T10:43:13.863Z,60
2022-09-02T10:43:56.729Z,60
2022-09-02T10:50:22.739Z,60
2022-09-02T10:51:03.891Z,60
2022-09-02T10:51:45.325Z,60
2022-09-02T10:52:26.420Z,60
2022-09-02T10:53:08.961Z,60
2022-09-02T10:53:48.502Z,60
2022-09-02T10:54:29.637Z,60
2022-09-02T10:55:10.625Z,60
2022-09-02T10:57:56.180Z,60
2022-09-02T10:58:37.166Z,55
2022-09-02T10:59:18.168Z,55
2022-09-02T11:00:00.076Z,55
2022-09-02T11:04:06.508Z,55
2022-09-02T11:04:47.506Z,55
2022-09-02T11:05:28.678Z,55
2022-09-02T11:06:09.618Z,55
2022-09-02T11:07:06.061Z,55
2022-09-02T11:09:36.298Z,55
2022-09-02T11:10:17.508Z,55
2022-09-02T11:10:58.542Z,55
2022-09-02T11:11:41.029Z,50
2022-09-02T11:15:06.609Z,50
2022-09-02T11:15:47.792Z,50
2022-09-02T11:16:28.933Z,50
2022-09-02T11:17:13.100Z,50
2022-09-02T11:17:50.906Z,50
2022-09-02T11:21:17.122Z,50
2022-09-02T11:21:58.072Z,50
2022-09-02T11:22:39.092Z,50
2022-09-02T11:23:20.163Z,50
2022-09-02T11:27:41.462Z,50
2022-09-02T11:28:07.287Z,50
2022-09-02T11:28:48.299Z,50
2022-09-02T11:29:29.290Z,50
2022-09-02T11:30:10.349Z,50
2022-09-02T11:32:16.234Z,50
2022-09-02T11:32:57.895Z,45
2022-09-02T11:33:38.901Z,45
2022-09-02T11:38:26.367Z,50
2022-09-02T11:39:07.401Z,50
2022-09-02T11:40:06.612Z,45
2022-09-02T11:40:36.926Z,45
2022-09-02T11:45:16.413Z,45
2022-09-02T11:45:57.475Z,45
2022-09-02T11:46:38.583Z,45
2022-09-02T11:47:19.518Z,45
2022-09-02T11:48:00.510Z,45
2022-09-02T11:52:12.449Z,45
2022-09-02T11:52:52.459Z,45
2022-09-02T11:53:32.999Z,45
2022-09-02T12:32:44.506Z,45
2022-09-02T12:33:24.855Z,45
2022-09-02T12:34:05.338Z,45
2022-09-02T12:38:49.754Z,45
2022-09-02T12:39:30.260Z,45
2022-09-02T12:40:13.037Z,45
2022-09-02T12:40:51.312Z,45
2022-09-02T12:41:31.790Z,45
2022-09-02T12:42:12.261Z,45
2022-09-02T12:42:53.364Z,45
2022-09-02T12:43:33.886Z,45
2022-09-02T12:50:59.516Z,45
2022-09-02T12:51:40.017Z,45
2022-09-02T12:52:20.637Z,45
2022-09-02T12:53:01.287Z,45
2022-09-02T12:53:41.738Z,45
2022-09-02T12:54:23.123Z,45
2022-09-02T12:56:52.035Z,45
2022-09-02T12:57:32.657Z,45
2022-09-02T12:58:15.802Z,45
2022-09-02T12:59:37.933Z,45
2022-09-02T13:03:20.736Z,45
2022-09-02T13:04:02.547Z,45
2022-09-02T13:04:42.487Z,45
2022-09-02T13:05:22.861Z,45
2022-09-02T13:06:03.409Z,45
2022-09-02T13:12:50.418Z,45
2022-09-02T13:14:13.062Z,45
2022-09-02T13:17:39.800Z,45
2022-09-02T13:18:23.458Z,45
2022-09-02T13:19:02.300Z,45
2022-09-02T13:19:42.741Z,45
2022-09-02T13:20:23.404Z,40
2022-09-02T13:21:13.883Z,40
2022-09-02T13:22:47.219Z,40
2022-09-02T13:27:29.156Z,45
2022-09-02T13:28:09.807Z,45
2022-09-02T13:28:56.153Z,45
2022-09-02T13:33:42.410Z,40
2022-09-02T13:34:19.407Z,40
2022-09-02T13:35:40.396Z,40
2022-09-02T13:36:20.832Z,40
2022-09-02T13:37:01.363Z,40
2022-09-02T13:37:41.814Z,40
2022-09-02T13:38:22.803Z,40
2022-09-02T13:39:02.980Z,40
2022-09-02T13:39:43.274Z,40
2022-09-02T13:47:49.036Z,40
2022-09-02T13:48:29.543Z,40
2022-09-02T13:49:10.028Z,40
2022-09-02T13:49:50.470Z,40
2022-09-02T13:50:30.922Z,40
2022-09-02T13:51:11.427Z,40
2022-09-02T13:51:51.885Z,40
2022-09-02T13:53:12.259Z,40
2022-09-02T13:53:45.318Z,40
2022-09-02T13:54:33.918Z,40
2022-09-02T14:00:39.068Z,40
2022-09-02T14:01:19.785Z,40
2022-09-02T14:02:00.168Z,40
2022-09-02T14:02:40.631Z,40
2022-09-02T14:03:21.218Z,40
2022-09-02T14:04:01.525Z,40
2022-09-02T14:04:41.926Z,40
2022-09-02T14:05:22.455Z,40
2022-09-02T14:06:02.973Z,40
2022-09-02T14:06:43.399Z,40
2022-09-02T14:14:08.891Z,40
2022-09-02T14:14:49.510Z,40
2022-09-02T14:18:23.945Z,40
2022-09-02T14:19:05.375Z,40
2022-09-02T14:19:45.907Z,40
2022-09-02T14:20:27.505Z,40
2022-09-02T14:22:29.249Z,40
2022-09-02T14:23:09.903Z,40
2022-09-02T14:23:50.353Z,40
2022-09-02T14:24:30.799Z,40
2022-09-02T14:25:11.862Z,40
2022-09-02T14:25:53.075Z,40
2022-09-02T14:26:32.996Z,40
2022-09-02T14:27:13.502Z,40
2022-09-02T14:27:54.003Z,40
2022-09-02T14:30:39.062Z,35
2022-09-02T14:31:19.584Z,40
2022-09-02T14:32:00.278Z,40
2022-09-02T14:32:40.511Z,40
2022-09-02T14:33:21.014Z,40
2022-09-02T14:34:01.714Z,35
2022-09-02T14:34:42.628Z,35
2022-09-02T14:35:23.090Z,35
2022-09-02T14:36:03.608Z,35
2022-09-02T14:42:08.998Z,35
2022-09-02T14:42:51.720Z,35
2022-09-02T14:43:30.018Z,35
2022-09-02T14:44:10.536Z,35
2022-09-02T14:44:51.043Z,35
2022-09-02T14:45:31.769Z,40
2022-09-02T14:46:12.319Z,35
2022-09-02T14:46:52.768Z,35
2022-09-02T14:47:33.259Z,35
2022-09-02T14:54:59.431Z,35
2022-09-02T14:55:40.007Z,35
2022-09-02T14:56:20.550Z,35
2022-09-02T14:57:01.040Z,35
2022-09-02T14:57:41.593Z,35
2022-09-02T14:58:23.203Z,35
2022-09-02T14:59:02.572Z,35
2022-09-02T14:59:43.048Z,35
2022-09-02T15:00:23.603Z,35
2022-09-02T15:07:49.462Z,30
2022-09-02T15:08:29.941Z,30
2022-09-02T15:09:10.425Z,30
2022-09-02T15:09:50.954Z,30
2022-09-02T15:10:31.462Z,30
2022-09-02T15:11:11.989Z,30
2022-09-02T15:11:52.502Z,30
2022-09-02T15:12:33.391Z,30
2022-09-02T15:17:19.609Z,30
2022-09-02T15:17:59.712Z,30
2022-09-02T15:18:40.281Z,30
2022-09-02T15:19:21.354Z,30
2022-09-02T15:20:02.081Z,30
2022-09-02T15:20:42.683Z,25
2022-09-02T15:22:03.647Z,30
2022-09-02T15:24:57.684Z,30
2022-09-02T15:25:38.152Z,30
2022-09-02T15:26:18.636Z,30
2022-09-02T15:31:02.223Z,30
2022-09-02T15:31:42.508Z,30
2022-09-02T15:32:23.003Z,25
2022-09-02T15:33:03.494Z,25
2022-09-02T15:33:44.088Z,25
2022-09-02T15:34:24.529Z,25
2022-09-02T15:35:04.958Z,25
2022-09-02T15:35:45.535Z,25
2022-09-02T15:42:31.806Z,25
2022-09-02T15:43:12.281Z,25
2022-09-02T15:43:52.751Z,25
2022-09-02T15:44:33.234Z,25
2022-09-02T15:45:13.714Z,25
2022-09-02T15:45:54.287Z,25
2022-09-02T15:47:15.137Z,25
2022-09-02T15:47:55.654Z,25
2022-09-02T15:48:36.141Z,25
2022-09-02T15:49:16.626Z,25
2022-09-02T15:54:42.518Z,25
2022-09-02T15:58:24.821Z,25
2022-09-02T15:59:08.767Z,25
2022-09-02T15:59:49.490Z,25
2022-09-02T16:00:30.100Z,25
2022-09-02T16:01:12.190Z,25
2022-09-02T16:01:52.706Z,25
2022-09-02T16:02:33.259Z,25
2022-09-02T16:03:19.231Z,25
2022-09-02T16:07:01.750Z,25
2022-09-02T16:07:41.857Z,25
2022-09-02T16:08:23.819Z,25
2022-09-02T16:09:04.331Z,25
2022-09-02T16:09:44.815Z,25
2022-09-02T16:13:44.538Z,20
2022-09-02T16:14:25.325Z,20
2022-09-02T16:15:06.578Z,20
2022-09-02T16:19:09.639Z,20
2022-09-02T16:22:39.996Z,20
2022-09-02T16:23:20.985Z,20
2022-09-02T16:24:02.063Z,20
2022-09-02T16:25:24.647Z,20
2022-09-02T16:26:07.501Z,20
2022-09-02T16:26:48.362Z,20
2022-09-02T16:30:14.256Z,20
2022-09-02T16:30:55.242Z,20
2022-09-02T16:31:36.232Z,20
2022-09-02T16:32:26.905Z,20
2022-09-02T16:32:58.298Z,20
2022-09-02T16:37:05.540Z,20
2022-09-02T16:37:47.080Z,20
2022-09-02T16:38:28.177Z,20
2022-09-02T16:40:34.333Z,20
2022-09-02T16:42:54.722Z,15
2022-09-02T16:43:36.556Z,15
2022-09-02T16:44:15.722Z,15
2022-09-02T16:48:23.738Z,15
2022-09-02T16:49:00.089Z,15
2022-09-02T16:49:41.122Z,15
2022-09-02T16:50:21.635Z,15
2022-09-02T16:51:02.284Z,15
2022-09-02T16:51:42.684Z,15
2022-09-02T16:52:23.437Z,15
2022-09-02T16:53:03.744Z,15
2022-09-02T16:58:29.532Z,15
2022-09-02T17:02:04.893Z,15
2022-09-02T17:02:45.383Z,15
2022-09-02T17:03:25.864Z,15
2022-09-02T17:08:09.845Z,10
2022-09-02T17:08:50.325Z,10
2022-09-02T17:09:30.966Z,10
2022-09-02T17:10:11.813Z,10
2022-09-02T17:10:52.332Z,10
2022-09-02T17:11:32.761Z,10
2022-09-02T17:12:13.260Z,10
2022-09-02T17:12:53.753Z,10
2022-09-02T17:13:34.276Z,10
2022-09-02T17:20:19.829Z,10
2022-09-02T17:21:00.299Z,10
2022-09-02T17:21:40.799Z,10
2022-09-02T17:22:21.260Z,10
2022-09-02T17:23:01.764Z,10
2022-09-02T17:23:42.263Z,10
2022-09-02T17:24:22.770Z,10
2022-09-02T17:25:03.237Z,10
2022-09-02T17:25:43.739Z,10
2022-09-02T17:26:24.167Z,10
2022-09-02T17:29:14.051Z,10
2022-09-02T17:29:51.993Z,10
2022-09-02T17:30:32.381Z,10
2022-09-02T17:31:12.793Z,10
2022-09-02T17:31:53.297Z,10
2022-09-02T17:32:33.753Z,5
2022-09-02T17:33:15.722Z,5
2022-09-02T17:36:39.686Z,5
2022-09-02T17:37:23.844Z,5
2022-09-02T17:42:09.755Z,5
2022-09-02T17:42:50.234Z,5
2022-09-02T17:43:30.748Z,5
2022-09-02T17:44:11.202Z,5
2022-09-02T17:44:51.771Z,5
2022-09-02T17:45:32.276Z,5
2022-09-02T17:46:12.950Z,5
2022-09-02T17:46:53.357Z,5
2022-09-02T17:47:33.879Z,5
2022-09-02T17:48:35.619Z,5
2022-09-02T18:36:15.889Z,0
2022-09-02T18:36:56.431Z,0
2022-09-02T18:37:36.972Z,0
2022-09-02T18:42:20.364Z,0
2022-09-02T18:43:00.882Z,0
2022-09-02T18:43:41.462Z,0
2022-09-02T18:44:22.109Z,0
2022-09-02T18:45:02.612Z,0
2022-09-02T18:45:43.278Z,0
2022-09-02T18:46:23.650Z,0
2022-09-02T18:47:04.132Z,0
2022-09-02T18:47:44.643Z,0
2022-09-02T18:48:25.172Z,0
2022-09-02T18:55:50.610Z,0
2022-09-02T18:56:31.147Z,0
2022-09-02T18:57:11.557Z,0
2022-09-02T18:57:52.083Z,0
2022-09-02T18:58:32.575Z,0
2022-09-02T18:59:13.037Z,0
2022-09-02T18:59:53.569Z,0
2022-09-02T19:00:34.049Z,0
2022-09-02T19:01:14.767Z,0
2022-09-02T19:01:55.201Z,0
2022-09-02T19:08:01.013Z,0
2022-09-02T19:08:41.745Z,0
2022-09-02T19:09:22.127Z,0
2022-09-02T19:10:02.631Z,0
2022-09-02T19:10:43.332Z,0
2022-09-02T19:11:23.818Z,0
2022-09-02T19:12:04.630Z,0
2022-09-02T19:15:33.053Z,0
2022-09-02T19:16:13.744Z,0
2022-09-02T19:16:54.843Z,0
2022-09-02T19:17:35.564Z,0
2022-09-02T19:22:20.480Z,0
2022-09-02T19:23:01.624Z,0
2022-09-02T19:23:42.235Z,0
2022-09-02T19:24:22.693Z,0
2022-09-02T19:25:03.194Z,0
2022-09-02T19:25:43.684Z,0
2022-09-02T19:26:24.187Z,0
2022-09-02T19:27:04.650Z,0
2022-09-02T19:27:45.168Z,0
2022-09-02T19:31:50.591Z,0
2022-09-02T19:32:32.937Z,0
2022-09-02T19:39:03.537Z,0
2022-09-02T19:39:44.861Z,0
2022-09-02T19:40:26.547Z,0
2022-09-02T19:41:07.480Z,0
2022-09-02T19:41:48.571Z,0
2022-09-02T19:42:29.714Z,0
2022-09-02T19:45:16.505Z,0
2022-09-02T19:45:55.723Z,0
2022-09-02T19:47:12.179Z,0
2022-09-02T19:48:07.390Z,0
2022-09-02T19:48:39.453Z,0
2022-09-02T19:52:04.826Z,0
2022-09-02T19:52:45.803Z,0
2022-09-02T19:53:26.764Z,0
2022-09-02T19:54:08.073Z,0
2022-09-02T19:54:49.240Z,0
2022-09-02T19:58:44.488Z,0
2022-09-02T19:59:24.707Z,0
2022-09-02T20:00:05.206Z,0
2022-09-02T20:06:41.653Z,0
2022-09-02T20:07:22.322Z,0
2022-09-02T20:08:02.752Z,0
2022-09-02T20:08:43.236Z,0
2022-09-02T20:09:23.733Z,0
2022-09-02T20:10:04.224Z,0
2022-09-02T20:10:44.715Z,0
2022-09-02T20:17:30.010Z,0
2022-09-02T20:18:10.465Z,0
2022-09-02T20:18:51.055Z,0
2022-09-02T20:19:31.535Z,0
2022-09-02T20:20:12.063Z,0
2022-09-02T20:20:52.592Z,0
2022-09-02T20:21:33.063Z,0
2022-09-02T20:22:13.678Z,0
2022-09-02T20:22:54.142Z,0
2022-09-02T20:26:33.284Z,0
2022-09-02T20:27:13.759Z,0
2022-09-02T20:27:54.217Z,0
2022-09-02T20:32:38.176Z,0
2022-09-02T20:33:18.661Z,0
2022-09-02T20:33:59.173Z,0
2022-09-02T20:34:39.696Z,0
2022-09-02T20:35:20.163Z,0
2022-09-02T20:36:01.250Z,0
2022-09-02T20:36:41.786Z,0
2022-09-02T20:37:22.303Z,0
2022-09-02T20:45:21.246Z,0
2022-09-02T20:46:01.833Z,0
2022-09-02T20:46:42.463Z,0
2022-09-02T20:50:06.007Z,0
2022-09-02T20:50:46.539Z,0
2022-09-02T20:51:27.014Z,0
2022-09-02T20:52:07.486Z,0
2022-09-02T20:52:47.936Z,0
2022-09-02T20:53:28.422Z,0
2022-09-02T20:54:08.896Z,0
2022-09-02T20:54:49.386Z,0
2022-09-02T20:55:29.988Z,0
2022-09-02T20:56:10.522Z,0
2022-09-02T21:03:36.151Z,0
2022-09-02T21:04:17.239Z,0
2022-09-02T21:04:57.715Z,0
2022-09-02T21:05:38.163Z,0
2022-09-02T21:06:18.641Z,0
2022-09-02T21:06:59.170Z,0
2022-09-02T21:07:39.684Z,0
2022-09-02T21:08:20.167Z,0
2022-09-02T21:09:00.598Z,0
2022-09-02T21:15:06.166Z,0
2022-09-02T21:15:47.010Z,0
2022-09-02T21:16:27.267Z,0
2022-09-02T21:17:07.739Z,0
2022-09-02T21:17:48.865Z,0
2022-09-02T21:18:28.716Z,0
2022-09-02T21:19:09.137Z,0
2022-09-02T21:19:49.660Z,0
2022-09-02T21:20:30.180Z,0
2022-09-02T21:21:10.616Z,0
2022-09-02T21:27:55.736Z,0
2022-09-02T21:28:36.197Z,0
2022-09-02T21:29:16.720Z,0
2022-09-02T21:30:01.721Z,0
2022-09-02T21:30:37.782Z,0
2022-09-02T21:31:18.228Z,0
2022-09-02T21:31:58.719Z,0
2022-09-02T21:32:39.277Z,0
2022-09-02T21:34:00.207Z,0
2022-09-02T21:42:06.160Z,0
2022-09-02T21:42:46.622Z,0
2022-09-02T21:43:27.137Z,0
2022-09-02T21:44:07.632Z,0
2022-09-02T21:47:46.990Z,0
2022-09-02T21:48:27.403Z,0
2022-09-02T21:49:07.913Z,0
2022-09-02T21:53:11.416Z,0
2022-09-02T21:53:51.898Z,0
2022-09-02T21:54:32.476Z,0
2022-09-02T21:55:12.936Z,0
2022-09-02T21:55:53.384Z,0
2022-09-02T21:56:33.883Z,0
2022-09-02T21:57:14.391Z,0
2022-09-02T21:57:55.502Z,0
2022-09-02T21:58:35.384Z,0
2022-09-02T21:59:15.945Z,0
2022-09-02T21:59:56.412Z,0
2022-09-02T22:07:21.804Z,0
2022-09-02T22:08:03.088Z,0
2022-09-02T22:08:43.669Z,0
2022-09-02T22:09:24.191Z,0
2022-09-02T22:10:04.722Z,0
2022-09-02T22:10:45.184Z,0
2022-09-02T22:11:25.664Z,0
2022-09-02T22:12:06.166Z,0
2022-09-02T22:19:31.542Z,0
2022-09-02T22:20:12.036Z,0
2022-09-02T22:20:52.580Z,0
2022-09-02T22:21:34.433Z,0
2022-09-02T22:22:13.492Z,0
2022-09-02T22:22:54.042Z,0
2022-09-02T22:23:34.561Z,0
2022-09-02T22:24:55.476Z,0
2022-09-02T22:25:35.950Z,0